Time;durP1;ratioP1;P1;durP2;ratioP2;P2;SDS_P1;SDS_P2;PMS_P1;PMS_P2;Temp;Humidity;BMP_temperature;BMP_pressure;BME280_temperature;BME280_humidity;BME280_pressure;Samples;Min_cycle;Max_cycle;Signal;HPM_P1;HPM_P2
2023/10/03 00:02:07;;;;;;;28.38;18.42;;;17.50;99.90;;;;;;5100300;27;20058;-61
2023/10/03 00:04:34;;;;;;;29.02;17.27;;;17.50;99.90;;;;;;5107949;27;20042;-62
2023/10/03 00:06:59;;;;;;;32.90;18.10;;;17.40;99.90;;;;;;5089539;27;20055;-63
2023/10/03 00:09:26;;;;;;;30.85;17.50;;;17.50;99.90;;;;;;5108414;27;20043;-62
2023/10/03 00:11:51;;;;;;;30.52;18.17;;;17.50;99.90;;;;;;5106316;27;20032;-62
2023/10/03 00:14:18;;;;;;;26.38;16.30;;;17.50;99.90;;;;;;5102172;27;20049;-62
2023/10/03 00:16:44;;;;;;;30.83;17.45;;;17.40;99.90;;;;;;5131217;27;20031;-61
2023/10/03 00:19:11;;;;;;;31.58;17.10;;;17.50;99.90;;;;;;5110906;27;20039;-61
2023/10/03 00:21:37;;;;;;;32.72;17.95;;;17.50;99.90;;;;;;5102497;27;20039;-62
2023/10/03 00:24:03;;;;;;;34.28;18.05;;;17.50;99.90;;;;;;5099084;27;20042;-62
2023/10/03 00:26:28;;;;;;;29.52;16.48;;;17.50;99.90;;;;;;5102818;27;20031;-62
2023/10/03 00:28:57;;;;;;;33.10;17.63;;;17.50;99.90;;;;;;5104927;27;20118;-61
2023/10/03 00:31:23;;;;;;;32.47;17.23;;;17.50;99.90;;;;;;5098936;27;20095;-61
2023/10/03 00:33:49;;;;;;;29.95;16.42;;;17.50;99.90;;;;;;5124628;27;20036;-61
2023/10/03 00:36:25;;;;;;;31.17;16.80;;;17.40;99.90;;;;;;5109456;27;20047;-61
2023/10/03 00:38:51;;;;;;;32.17;16.73;;;17.50;99.90;;;;;;5101708;27;20050;-61
2023/10/03 00:41:19;;;;;;;29.30;15.32;;;17.50;99.90;;;;;;5123383;27;20163;-62
2023/10/03 00:44:04;;;;;;;26.02;16.23;;;17.50;99.90;;;;;;5124532;27;20039;-62
2023/10/03 00:46:33;;;;;;;29.33;16.77;;;17.50;99.90;;;;;;5091578;27;20279;-62
2023/10/03 00:49:08;;;;;;;30.25;17.05;;;17.50;99.90;;;;;;5097053;27;20035;-62
2023/10/03 00:51:35;;;;;;;29.13;16.33;;;17.50;99.90;;;;;;5104792;27;20038;-62
2023/10/03 00:54:02;;;;;;;28.73;15.65;;;17.50;99.90;;;;;;5090045;27;20125;-62
2023/10/03 00:56:28;;;;;;;32.05;16.02;;;17.50;99.90;;;;;;5106963;27;20050;-61
2023/10/03 00:58:54;;;;;;;28.80;15.77;;;17.50;99.90;;;;;;5109368;27;20023;-61
2023/10/03 01:01:21;;;;;;;30.38;15.77;;;17.50;99.90;;;;;;5099353;27;20047;-61
2023/10/03 01:03:47;;;;;;;31.25;17.10;;;17.60;99.90;;;;;;5093049;27;20081;-62
2023/10/03 01:06:15;;;;;;;29.77;15.55;;;17.60;99.90;;;;;;5088803;27;20050;-61
2023/10/03 01:08:49;;;;;;;28.83;14.60;;;17.60;99.90;;;;;;5115630;27;20553;-62
2023/10/03 01:11:20;;;;;;;30.02;16.30;;;17.60;99.90;;;;;;5098353;27;20541;-61
2023/10/03 01:13:56;;;;;;;29.33;16.00;;;17.60;99.90;;;;;;5096572;27;20474;-62
2023/10/03 01:16:31;;;;;;;26.75;15.02;;;17.60;99.90;;;;;;5110582;27;20047;-62
2023/10/03 01:19:20;;;;;;;29.38;15.07;;;17.50;99.90;;;;;;5106770;27;20038;-62
2023/10/03 01:21:47;;;;;;;28.58;15.35;;;17.60;99.90;;;;;;5090652;27;20509;-61
2023/10/03 01:24:16;;;;;;;28.30;14.95;;;17.50;99.90;;;;;;5104940;27;20039;-62
2023/10/03 01:26:44;;;;;;;29.15;15.35;;;17.50;99.90;;;;;;5120990;27;20040;-62
2023/10/03 01:29:11;;;;;;;30.70;15.98;;;17.50;99.90;;;;;;5107949;27;20557;-62
2023/10/03 01:31:36;;;;;;;28.48;16.10;;;17.50;99.90;;;;;;5118455;27;20118;-62
2023/10/03 01:34:05;;;;;;;28.75;15.05;;;17.40;99.90;;;;;;5098684;27;20122;-61
2023/10/03 01:36:31;;;;;;;28.45;15.18;;;17.40;99.90;;;;;;5088813;27;20814;-62
2023/10/03 01:38:57;;;;;;;28.48;14.80;;;17.40;99.90;;;;;;5106537;27;20118;-61
2023/10/03 01:41:22;;;;;;;31.60;14.77;;;17.40;99.90;;;;;;5091035;28;20383;-61
2023/10/03 01:43:49;;;;;;;28.67;14.95;;;17.40;99.90;;;;;;5101521;27;20071;-62
2023/10/03 01:46:17;;;;;;;28.83;15.32;;;17.40;99.90;;;;;;5089893;28;20050;-62
2023/10/03 01:48:43;;;;;;;26.95;14.20;;;17.30;99.90;;;;;;5092448;28;20052;-62
2023/10/03 01:51:09;;;;;;;28.00;15.18;;;17.30;99.90;;;;;;5106991;28;20031;-62
2023/10/03 01:53:41;;;;;;;26.88;14.93;;;17.40;99.90;;;;;;5112123;28;20048;-62
2023/10/03 01:56:06;;;;;;;28.27;15.05;;;17.40;99.90;;;;;;5110309;28;20038;-62
2023/10/03 01:58:34;;;;;;;28.10;14.85;;;17.40;99.90;;;;;;5110104;28;20072;-62
2023/10/03 02:01:00;;;;;;;26.02;13.68;;;17.40;99.90;;;;;;5093717;28;20056;-62
2023/10/03 02:03:28;;;;;;;25.88;14.15;;;17.30;99.90;;;;;;5109248;28;20040;-61
2023/10/03 02:05:55;;;;;;;28.90;14.65;;;17.30;99.90;;;;;;5103434;28;20043;-62
2023/10/03 02:08:21;;;;;;;30.75;15.35;;;17.30;99.90;;;;;;5087155;28;21358;-62
2023/10/03 02:10:51;;;;;;;29.83;14.95;;;17.30;99.90;;;;;;5086919;28;20251;-62
2023/10/03 02:13:18;;;;;;;30.80;15.57;;;17.40;99.90;;;;;;5111263;28;20042;-62
2023/10/03 02:15:45;;;;;;;27.55;14.27;;;17.30;99.90;;;;;;5106235;28;20055;-62
2023/10/03 02:18:16;;;;;;;26.95;14.45;;;17.30;99.90;;;;;;5112193;28;20035;-61
2023/10/03 02:20:52;;;;;;;28.42;13.68;;;17.30;99.90;;;;;;5117114;28;20110;-61
2023/10/03 02:23:25;;;;;;;25.25;13.90;;;17.30;99.90;;;;;;5110167;28;20110;-62
2023/10/03 02:25:54;;;;;;;26.75;14.40;;;17.30;99.90;;;;;;5081842;28;20048;-61
2023/10/03 02:28:20;;;;;;;29.48;14.85;;;17.20;99.90;;;;;;5125446;28;20110;-62
2023/10/03 02:30:48;;;;;;;30.25;15.45;;;17.30;99.90;;;;;;5104705;28;20067;-62
2023/10/03 02:33:15;;;;;;;34.20;15.40;;;17.20;99.90;;;;;;5118974;28;21570;-61
2023/10/03 02:35:46;;;;;;;27.48;14.32;;;17.20;99.90;;;;;;5108107;28;20039;-62
2023/10/03 02:38:25;;;;;;;27.67;14.63;;;17.20;99.90;;;;;;5117125;28;20060;-61
2023/10/03 02:41:00;;;;;;;28.42;14.75;;;17.10;99.90;;;;;;5099729;28;20087;-62
2023/10/03 02:43:30;;;;;;;29.98;15.05;;;17.20;99.90;;;;;;5125044;28;20122;-62
2023/10/03 02:45:55;;;;;;;29.85;14.07;;;17.20;99.90;;;;;;5096705;28;20424;-62
2023/10/03 02:48:21;;;;;;;28.38;14.48;;;17.20;99.90;;;;;;5086641;28;20546;-62
2023/10/03 02:50:49;;;;;;;26.02;14.18;;;17.20;99.90;;;;;;5105334;27;20039;-62
2023/10/03 02:53:19;;;;;;;28.02;13.95;;;17.20;99.90;;;;;;5092647;27;20083;-62
2023/10/03 02:55:46;;;;;;;31.85;15.43;;;17.30;99.90;;;;;;5110085;27;20043;-62
2023/10/03 02:58:20;;;;;;;28.58;14.48;;;17.30;99.90;;;;;;5091004;27;20520;-62
2023/10/03 03:00:53;;;;;;;28.58;14.88;;;17.20;99.90;;;;;;5093877;27;20111;-61
2023/10/03 03:03:19;;;;;;;26.27;14.32;;;17.30;99.90;;;;;;5109881;27;20054;-62
2023/10/03 03:05:46;;;;;;;32.65;14.18;;;17.30;99.90;;;;;;5110190;27;20498;-62
2023/10/03 03:10:57;;;;;;;31.57;14.20;;;17.30;99.90;;;;;;5111331;27;20117;-61
2023/10/03 03:13:29;;;;;;;26.98;13.57;;;17.30;99.90;;;;;;5113584;27;20557;-63
2023/10/03 03:16:03;;;;;;;;;;;17.30;99.90;;;;;;5097640;27;20110;-62
2023/10/03 03:18:31;;;;;;;24.42;13.68;;;17.20;99.90;;;;;;5113431;27;19958;-62
2023/10/03 03:21:02;;;;;;;29.08;14.30;;;17.30;99.90;;;;;;5112110;27;20053;-62
2023/10/03 03:23:35;;;;;;;29.33;14.23;;;17.30;99.90;;;;;;5129724;27;20047;-62
2023/10/03 03:26:20;;;;;;;32.30;14.23;;;17.30;99.90;;;;;;5112041;27;20111;-62
2023/10/03 03:28:50;;;;;;;26.17;13.55;;;17.30;99.90;;;;;;5127026;27;20042;-62
2023/10/03 03:31:22;;;;;;;26.52;12.90;;;17.30;99.90;;;;;;5103367;27;20035;-61
2023/10/03 03:33:57;;;;;;;28.42;14.32;;;17.30;99.90;;;;;;5130557;27;20031;-62
2023/10/03 03:36:29;;;;;;;27.83;14.48;;;17.30;99.90;;;;;;5108389;27;20047;-62
2023/10/03 03:38:56;;;;;;;27.00;13.57;;;17.30;99.90;;;;;;5132275;27;20071;-61
2023/10/03 03:41:22;;;;;;;26.02;13.13;;;17.40;99.90;;;;;;5111965;27;20058;-62
2023/10/03 03:43:48;;;;;;;26.00;13.40;;;17.40;99.90;;;;;;5132904;27;20023;-62
2023/10/03 03:46:20;;;;;;;24.63;13.05;;;17.40;99.90;;;;;;5124178;27;20170;-63
2023/10/03 03:48:47;;;;;;;29.52;13.95;;;17.40;99.90;;;;;;5114059;27;20122;-61
2023/10/03 03:51:14;;;;;;;28.35;14.68;;;17.40;99.90;;;;;;5128818;27;20035;-62
2023/10/03 03:53:42;;;;;;;24.65;13.20;;;17.40;99.90;;;;;;5113535;27;20088;-61
2023/10/03 03:56:08;;;;;;;26.80;13.40;;;17.50;99.90;;;;;;5092729;27;20038;-62
2023/10/03 03:58:40;;;;;;;28.17;14.05;;;17.50;99.90;;;;;;5113129;27;20512;-62
2023/10/03 04:01:16;;;;;;;28.02;13.85;;;17.50;99.90;;;;;;5092060;27;20062;-61
2023/10/03 04:03:42;;;;;;;26.42;13.07;;;17.50;99.90;;;;;;5131814;27;20039;-61
2023/10/03 04:06:11;;;;;;;27.55;13.65;;;17.60;99.90;;;;;;5105163;27;20439;-61
2023/10/03 04:08:38;;;;;;;27.08;12.90;;;17.60;99.90;;;;;;5108421;27;20444;-62
2023/10/03 04:11:07;;;;;;;24.63;13.45;;;17.60;99.90;;;;;;5127826;27;20039;-61
2023/10/03 04:13:39;;;;;;;29.88;14.20;;;17.60;99.90;;;;;;5129259;27;20032;-62
2023/10/03 04:16:08;;;;;;;25.33;14.07;;;17.60;99.90;;;;;;5120832;27;20482;-61
2023/10/03 04:18:34;;;;;;;24.13;12.43;;;17.70;99.90;;;;;;5108806;27;20044;-61
2023/10/03 04:21:00;;;;;;;25.63;12.77;;;17.70;99.90;;;;;;5130358;27;20065;-61
2023/10/03 04:23:26;;;;;;;25.88;14.00;;;17.70;99.90;;;;;;5124823;27;20375;-62
2023/10/03 04:25:52;;;;;;;28.02;13.25;;;17.70;99.90;;;;;;5124347;27;20039;-62
2023/10/03 04:28:18;;;;;;;24.83;12.90;;;17.70;99.90;;;;;;5099722;27;20039;-61
2023/10/03 04:30:44;;;;;;;23.55;12.55;;;17.70;99.90;;;;;;5112115;27;20043;-62
2023/10/03 04:33:09;;;;;;;24.20;12.18;;;17.70;99.90;;;;;;5120812;27;20490;-61
2023/10/03 04:35:35;;;;;;;26.40;13.15;;;17.70;99.90;;;;;;5100503;27;20493;-62
2023/10/03 04:38:04;;;;;;;23.70;13.10;;;17.70;99.90;;;;;;5119813;27;20121;-61
2023/10/03 04:40:37;;;;;;;24.75;13.13;;;17.70;99.90;;;;;;5116854;27;20050;-62
2023/10/03 04:43:10;;;;;;;24.33;12.52;;;17.80;99.90;;;;;;5122070;27;20039;-61
2023/10/03 04:45:39;;;;;;;26.92;13.32;;;17.80;99.90;;;;;;5100885;27;20077;-61
2023/10/03 04:48:05;;;;;;;23.08;12.20;;;17.90;99.90;;;;;;5105540;27;20049;-62
2023/10/03 04:50:32;;;;;;;26.48;12.38;;;18.00;99.90;;;;;;5110195;27;20114;-62
2023/10/03 04:53:00;;;;;;;24.15;12.32;;;18.00;99.90;;;;;;5126363;27;20034;-61
2023/10/03 04:55:26;;;;;;;24.15;11.88;;;18.10;99.90;;;;;;5113111;27;20085;-61
2023/10/03 04:57:53;;;;;;;23.48;11.43;;;18.10;99.90;;;;;;5112236;27;20051;-61
2023/10/03 05:00:21;;;;;;;24.15;12.05;;;18.20;99.90;;;;;;5112741;27;20072;-62
2023/10/03 05:02:54;;;;;;;25.77;11.25;;;18.30;99.90;;;;;;5130208;27;20051;-61
2023/10/03 05:05:25;;;;;;;21.73;10.85;;;18.30;99.90;;;;;;5105389;27;20063;-61
2023/10/03 05:07:53;;;;;;;18.50;10.10;;;18.30;99.90;;;;;;5109515;27;20393;-61
2023/10/03 05:10:23;;;;;;;25.92;11.13;;;18.30;99.90;;;;;;5107174;27;20343;-61
2023/10/03 05:12:53;;;;;;;19.08;10.18;;;18.40;99.90;;;;;;5129132;27;20118;-61
2023/10/03 05:15:20;;;;;;;22.02;10.73;;;18.40;99.90;;;;;;5109611;27;20132;-62
2023/10/03 05:17:47;;;;;;;25.13;10.35;;;18.50;99.90;;;;;;5106262;27;20452;-61
2023/10/03 05:20:14;;;;;;;20.95;9.65;;;18.50;99.90;;;;;;5123210;27;20079;-61
2023/10/03 05:22:41;;;;;;;19.98;10.25;;;18.50;99.90;;;;;;5110768;27;20074;-64
2023/10/03 05:25:11;;;;;;;23.77;9.93;;;18.50;99.90;;;;;;5108804;28;20047;-62
2023/10/03 05:27:39;;;;;;;19.77;10.20;;;18.50;99.90;;;;;;5128308;27;20049;-61
2023/10/03 05:30:05;;;;;;;19.88;9.73;;;18.50;99.90;;;;;;5109972;28;20043;-62
2023/10/03 05:32:31;;;;;;;19.15;9.63;;;18.50;99.90;;;;;;5128822;27;20043;-61
2023/10/03 05:35:01;;;;;;;20.58;9.30;;;18.50;99.90;;;;;;5110211;27;20122;-61
2023/10/03 05:37:26;;;;;;;22.70;9.88;;;18.50;99.90;;;;;;5102717;27;20082;-62
2023/10/03 05:39:53;;;;;;;18.60;9.40;;;18.50;99.90;;;;;;5111305;27;20067;-61
2023/10/03 05:42:19;;;;;;;20.50;9.70;;;18.50;99.90;;;;;;5127402;27;20050;-62
2023/10/03 05:44:46;;;;;;;18.30;9.25;;;18.60;99.90;;;;;;5108624;28;20045;-61
2023/10/03 05:47:12;;;;;;;21.83;8.93;;;18.60;99.90;;;;;;5128190;28;20047;-61
2023/10/03 05:49:39;;;;;;;17.10;7.78;;;18.50;99.90;;;;;;5089756;28;20055;-61
2023/10/03 05:52:06;;;;;;;21.02;8.25;;;18.50;99.90;;;;;;5112078;28;20108;-62
2023/10/03 05:54:32;;;;;;;17.50;7.22;;;18.50;99.90;;;;;;5130083;28;20108;-62
2023/10/03 05:56:58;;;;;;;16.83;7.47;;;18.50;99.90;;;;;;5110422;28;20055;-62
2023/10/03 05:59:27;;;;;;;16.60;7.18;;;18.50;99.90;;;;;;5110111;28;20035;-62
2023/10/03 06:01:53;;;;;;;16.90;6.30;;;18.50;99.90;;;;;;5111571;28;20039;-62
2023/10/03 06:04:18;;;;;;;20.08;6.55;;;18.50;99.90;;;;;;5130767;28;20049;-62
2023/10/03 06:06:44;;;;;;;13.82;6.03;;;18.40;99.90;;;;;;5111272;28;20027;-61
2023/10/03 06:09:10;;;;;;;13.93;6.20;;;18.40;99.90;;;;;;5129352;28;20174;-61
2023/10/03 06:11:37;;;;;;;13.45;5.72;;;18.40;99.90;;;;;;5110551;28;20126;-61
2023/10/03 06:14:06;;;;;;;17.40;6.00;;;18.40;99.90;;;;;;5130161;28;20112;-61
2023/10/03 06:16:32;;;;;;;14.15;5.72;;;18.40;99.90;;;;;;5126520;27;20039;-62
2023/10/03 06:18:58;;;;;;;13.15;5.32;;;18.40;99.90;;;;;;5095089;28;20406;-62
2023/10/03 06:21:24;;;;;;;12.10;4.53;;;18.40;99.90;;;;;;5130133;28;20047;-62
2023/10/03 06:23:50;;;;;;;13.98;4.13;;;18.30;99.90;;;;;;5111574;28;20047;-62
2023/10/03 06:26:18;;;;;;;12.25;4.30;;;18.30;99.90;;;;;;5132242;27;20039;-62
2023/10/03 06:28:45;;;;;;;13.43;4.55;;;18.30;99.90;;;;;;5115940;27;20517;-61
2023/10/03 06:31:11;;;;;;;12.52;4.07;;;18.30;99.90;;;;;;5132645;27;20043;-62
2023/10/03 06:33:37;;;;;;;11.65;4.40;;;18.30;99.90;;;;;;5131774;27;20034;-62
2023/10/03 06:36:06;;;;;;;6.80;3.17;;;18.30;99.90;;;;;;5131276;27;20390;-62
2023/10/03 06:38:32;;;;;;;14.20;4.80;;;18.30;99.90;;;;;;5134272;27;20737;-62
2023/10/03 06:40:59;;;;;;;10.63;3.90;;;18.20;99.90;;;;;;5115077;27;20051;-63
2023/10/03 06:43:25;;;;;;;14.30;4.35;;;18.20;99.90;;;;;;5116392;27;20517;-62
2023/10/03 06:45:51;;;;;;;10.63;3.90;;;18.20;99.90;;;;;;5134479;27;20131;-62
2023/10/03 06:48:16;;;;;;;11.30;3.50;;;18.20;99.90;;;;;;5116080;27;20346;-62
2023/10/03 06:50:42;;;;;;;9.60;3.90;;;18.20;99.90;;;;;;5134611;27;20024;-62
2023/10/03 06:53:09;;;;;;;13.27;3.65;;;18.20;99.90;;;;;;5099275;27;20031;-63
2023/10/03 06:55:36;;;;;;;9.43;3.22;;;18.10;99.90;;;;;;5116153;27;20401;-63
2023/10/03 06:58:05;;;;;;;9.35;3.38;;;18.10;99.90;;;;;;5115888;27;20473;-63
2023/10/03 07:00:32;;;;;;;12.48;3.95;;;18.20;99.90;;;;;;5134296;27;20035;-62
2023/10/03 07:02:58;;;;;;;9.43;3.40;;;18.10;99.90;;;;;;5134058;27;20038;-61
2023/10/03 07:05:24;;;;;;;9.15;3.67;;;18.10;99.90;;;;;;5115784;27;20122;-61
2023/10/03 07:07:51;;;;;;;9.20;3.67;;;18.20;99.90;;;;;;5115447;27;20075;-63
2023/10/03 07:10:17;;;;;;;8.75;3.40;;;18.20;99.90;;;;;;5134230;27;20047;-62
2023/10/03 07:12:42;;;;;;;7.95;3.28;;;18.20;99.90;;;;;;5134203;27;20435;-62
2023/10/03 07:15:09;;;;;;;13.95;4.70;;;18.30;99.90;;;;;;5134023;27;20035;-62
2023/10/03 07:17:35;;;;;;;10.95;3.65;;;18.30;99.90;;;;;;5115823;27;20485;-63
2023/10/03 07:20:04;;;;;;;9.48;3.88;;;18.20;99.90;;;;;;5133721;27;20489;-61
2023/10/03 07:22:30;;;;;;;9.60;3.38;;;18.20;99.90;;;;;;5133811;27;20043;-62
2023/10/03 07:24:56;;;;;;;8.80;4.00;;;18.00;99.90;;;;;;5097719;27;20069;-62
2023/10/03 07:27:22;;;;;;;9.68;3.47;;;17.90;99.90;;;;;;5111302;27;20123;-62
2023/10/03 07:29:47;;;;;;;9.60;4.10;;;17.80;99.90;;;;;;5115113;27;20039;-62
2023/10/03 07:32:13;;;;;;;7.35;4.10;;;17.70;99.90;;;;;;5114996;27;20466;-63
2023/10/03 07:34:43;;;;;;;13.48;6.80;;;17.60;99.90;;;;;;5133140;27;20047;-62
2023/10/03 07:37:15;;;;;;;15.23;7.97;;;17.60;99.90;;;;;;5113704;27;20047;-62
2023/10/03 07:39:42;;;;;;;12.63;7.05;;;17.50;99.90;;;;;;5133290;27;20088;-63
2023/10/03 07:42:08;;;;;;;10.15;4.63;;;17.60;99.90;;;;;;5114209;27;20114;-62
2023/10/03 07:44:36;;;;;;;10.25;3.90;;;17.60;99.90;;;;;;5133050;27;20423;-63
2023/10/03 07:47:03;;;;;;;10.10;3.50;;;17.60;99.90;;;;;;5114384;27;20039;-62
2023/10/03 07:49:31;;;;;;;10.38;3.70;;;17.60;99.90;;;;;;5114401;27;20074;-62
2023/10/03 07:51:59;;;;;;;9.93;3.45;;;17.60;99.90;;;;;;5114371;27;20039;-63
2023/10/03 07:54:31;;;;;;;9.25;3.70;;;17.70;99.90;;;;;;5133252;27;20106;-62
2023/10/03 07:56:57;;;;;;;10.35;3.78;;;17.60;99.90;;;;;;5097384;27;20035;-62
2023/10/03 07:59:25;;;;;;;12.85;4.70;;;17.50;99.90;;;;;;5113785;27;20046;-62
2023/10/03 08:01:51;;;;;;;13.38;4.22;;;17.30;99.90;;;;;;5133436;27;20386;-62
2023/10/03 08:04:17;;;;;;;8.60;3.55;;;17.20;99.90;;;;;;5114711;27;20055;-62
2023/10/03 08:06:43;;;;;;;8.23;3.95;;;17.20;99.90;;;;;;5133179;27;20135;-62
2023/10/03 08:09:11;;;;;;;9.77;4.00;;;17.10;99.90;;;;;;5114327;27;20036;-62
2023/10/03 08:11:36;;;;;;;11.70;4.25;;;17.00;99.90;;;;;;5114624;27;20050;-62
2023/10/03 08:14:16;;;;;;;11.70;3.78;;;17.00;99.90;;;;;;5097556;27;20039;-62
2023/10/03 08:16:43;;;;;;;10.45;3.53;;;17.00;99.90;;;;;;5097707;27;20043;-63
2023/10/03 08:19:26;;;;;;;9.50;3.80;;;16.90;99.90;;;;;;5097211;27;20038;-63
2023/10/03 08:21:53;;;;;;;8.02;2.83;;;16.90;99.90;;;;;;5115001;27;20500;-62
2023/10/03 08:24:24;;;;;;;10.30;3.00;;;16.90;99.90;;;;;;5114330;27;20047;-63
2023/10/03 08:26:58;;;;;;;8.60;3.05;;;16.90;99.90;;;;;;5114641;27;20058;-62
2023/10/03 08:29:25;;;;;;;8.23;2.30;;;16.80;99.90;;;;;;5114060;27;20065;-62
2023/10/03 08:31:58;;;;;;;9.27;2.60;;;16.80;99.90;;;;;;5133082;27;20107;-62
2023/10/03 08:34:28;;;;;;;8.55;2.20;;;16.80;99.90;;;;;;5114047;27;20039;-62
2023/10/03 08:36:58;;;;;;;3.85;1.50;;;16.70;99.90;;;;;;5132624;27;20049;-61
2023/10/03 08:39:25;;;;;;;10.30;2.78;;;16.60;99.90;;;;;;5113658;27;20035;-62
2023/10/03 08:42:13;;;;;;;8.00;2.03;;;16.60;99.90;;;;;;5114071;27;20047;-61
2023/10/03 08:44:52;;;;;;;6.85;1.73;;;16.50;99.90;;;;;;5113840;27;20062;-63
2023/10/03 08:47:21;;;;;;;6.70;1.60;;;16.50;99.90;;;;;;5113961;27;20031;-62
2023/10/03 08:49:56;;;;;;;5.63;1.30;;;16.50;99.90;;;;;;5113618;27;20140;-62
2023/10/03 08:52:39;;;;;;;5.47;1.35;;;16.40;99.90;;;;;;5132192;27;20371;-62
2023/10/03 08:55:07;;;;;;;4.68;1.50;;;16.40;99.90;;;;;;5113318;27;20092;-62
2023/10/03 08:57:35;;;;;;;6.22;1.33;;;16.50;99.90;;;;;;5131807;27;20059;-62
2023/10/03 09:00:05;;;;;;;4.53;1.50;;;16.50;99.90;;;;;;5113790;27;20035;-61
2023/10/03 09:02:45;;;;;;;5.93;1.60;;;16.40;99.90;;;;;;5113584;27;20402;-63
2023/10/03 09:05:24;;;;;;;6.25;0.98;;;16.40;99.90;;;;;;5132166;27;20046;-62
2023/10/03 09:07:51;;;;;;;5.32;0.90;;;16.40;99.90;;;;;;5113424;27;20043;-63
2023/10/03 09:10:24;;;;;;;3.78;0.88;;;16.40;99.90;;;;;;5131785;27;20515;-62
2023/10/03 09:13:03;;;;;;;5.10;0.82;;;16.50;99.90;;;;;;5131743;27;20039;-62
2023/10/03 09:15:37;;;;;;;3.17;0.80;;;16.40;99.90;;;;;;5113117;27;20055;-62
2023/10/03 09:18:09;;;;;;;2.63;0.55;;;16.40;99.90;;;;;;5128938;27;20102;-62
2023/10/03 09:20:36;;;;;;;3.70;0.60;;;16.20;99.90;;;;;;5113096;27;20035;-62
2023/10/03 09:23:06;;;;;;;3.90;0.68;;;16.10;99.90;;;;;;5131397;27;20046;-62
2023/10/03 09:25:33;;;;;;;3.78;0.45;;;16.00;99.90;;;;;;5130716;27;20043;-62
2023/10/03 09:28:07;;;;;;;4.45;0.70;;;15.80;99.90;;;;;;5112919;27;20038;-62
2023/10/03 09:30:39;;;;;;;3.35;0.90;;;15.80;99.90;;;;;;5131087;27;20031;-62
2023/10/03 09:33:09;;;;;;;2.78;0.82;;;15.80;99.90;;;;;;5112992;28;20050;-62
2023/10/03 09:35:39;;;;;;;2.78;0.70;;;15.70;99.90;;;;;;5112535;27;20039;-62
2023/10/03 09:38:08;;;;;;;2.65;0.50;;;15.70;99.90;;;;;;5112822;28;20051;-62
2023/10/03 09:40:51;;;;;;;5.18;0.88;;;15.70;99.90;;;;;;5130721;27;20049;-61
2023/10/03 09:43:27;;;;;;;3.58;0.77;;;15.70;99.90;;;;;;5112887;28;20039;-62
2023/10/03 09:45:56;;;;;;;2.17;0.50;;;15.70;99.90;;;;;;5112813;28;20038;-62
2023/10/03 09:48:25;;;;;;;1.90;0.50;;;15.80;99.90;;;;;;5112842;28;20434;-63
2023/10/03 09:51:05;;;;;;;2.72;0.63;;;15.70;99.90;;;;;;5112220;28;20035;-62
2023/10/03 09:53:32;;;;;;;4.60;0.60;;;15.80;99.90;;;;;;5131415;28;20088;-62
2023/10/03 09:55:59;;;;;;;3.58;0.50;;;15.80;99.90;;;;;;5131584;28;20042;-62
2023/10/03 09:58:31;;;;;;;4.57;0.98;;;15.90;99.90;;;;;;5113156;28;20039;-62
2023/10/03 10:00:58;;;;;;;4.80;0.70;;;16.00;99.90;;;;;;5096751;27;20046;-62
2023/10/03 10:03:33;;;;;;;2.35;0.40;;;16.00;99.90;;;;;;5117387;27;20333;-63
2023/10/03 10:06:20;;;;;;;2.75;0.60;;;16.00;99.90;;;;;;5099369;27;20131;-62
2023/10/03 10:08:58;;;;;;;3.17;0.50;;;16.00;99.90;;;;;;5116539;27;20051;-62
2023/10/03 10:11:27;;;;;;;2.65;0.60;;;16.00;99.90;;;;;;5135451;27;20039;-62
2023/10/03 10:14:16;;;;;;;2.83;0.60;;;15.90;99.90;;;;;;5116771;27;20047;-62
2023/10/03 10:17:03;;;;;;;3.92;0.60;;;15.90;99.90;;;;;;5116754;27;20047;-62
2023/10/03 10:20:11;;;;;;;2.40;0.50;;;15.80;99.90;;;;;;5116978;27;20047;-62
2023/10/03 10:22:58;;;;;;;2.83;0.70;;;15.80;99.90;;;;;;5116658;27;20082;-63
2023/10/03 10:25:37;;;;;;;2.65;0.50;;;15.70;99.90;;;;;;5135292;27;20135;-62
2023/10/03 10:28:05;;;;;;;1.65;0.43;;;15.50;99.90;;;;;;5116524;27;20035;-62
2023/10/03 10:30:35;;;;;;;3.22;0.50;;;15.40;99.90;;;;;;5135116;27;20044;-62
2023/10/03 10:33:20;;;;;;;2.17;0.50;;;15.40;99.90;;;;;;5115206;27;20039;-62
2023/10/03 10:36:09;;;;;;;3.13;0.68;;;15.40;99.90;;;;;;5134779;27;20043;-62
2023/10/03 10:38:34;;;;;;;2.83;0.80;;;15.30;99.90;;;;;;5099396;27;20054;-62
2023/10/03 10:41:22;;;;;;;0.88;0.43;;;15.30;99.90;;;;;;5116225;27;20047;-61
2023/10/03 10:44:10;;;;;;;4.93;0.68;;;15.30;99.90;;;;;;5116110;27;20054;-62
2023/10/03 10:46:47;;;;;;;2.28;1.00;;;15.20;99.90;;;;;;5116266;27;20042;-63
2023/10/03 10:49:52;;;;;;;3.97;0.70;;;15.10;99.90;;;;;;5116160;27;20091;-62
2023/10/03 10:52:17;;;;;;;4.03;0.93;;;15.10;99.90;;;;;;5116328;27;20039;-62
2023/10/03 10:54:44;;;;;;;3.25;0.60;;;15.20;99.90;;;;;;5116032;27;20050;-62
2023/10/03 10:57:11;;;;;;;1.98;0.60;;;15.20;99.90;;;;;;5115893;27;20114;-62
2023/10/03 10:59:40;;;;;;;1.67;0.75;;;15.20;99.90;;;;;;5116361;27;20039;-63
2023/10/03 11:02:26;;;;;;;3.22;0.80;;;15.30;99.90;;;;;;5115779;27;20145;-62
2023/10/03 11:04:58;;;;;;;4.35;0.80;;;15.30;99.90;;;;;;5115956;27;20054;-62
2023/10/03 11:07:28;;;;;;;4.28;0.70;;;15.40;99.90;;;;;;5134252;27;20114;-62
2023/10/03 11:09:56;;;;;;;3.22;0.98;;;15.50;99.90;;;;;;5113006;27;20047;-62
2023/10/03 11:12:26;;;;;;;4.40;0.80;;;15.50;99.90;;;;;;5133937;27;20118;-61
2023/10/03 11:14:54;;;;;;;3.85;0.80;;;15.60;99.90;;;;;;5097994;27;20047;-62
2023/10/03 11:17:20;;;;;;;1.70;0.63;;;15.60;99.90;;;;;;5133989;27;20077;-62
2023/10/03 11:19:50;;;;;;;4.13;0.80;;;15.70;99.90;;;;;;5134121;27;20126;-63
2023/10/03 11:22:17;;;;;;;6.18;0.80;;;15.70;99.90;;;;;;5133510;27;20035;-62
2023/10/03 11:24:46;;;;;;;3.20;0.70;;;15.60;99.90;;;;;;5115529;27;20050;-62
2023/10/03 11:27:26;;;;;;;2.88;0.70;;;15.60;99.90;;;;;;5133109;27;20031;-63
2023/10/03 11:29:52;;;;;;;3.92;0.80;;;15.60;99.90;;;;;;5094770;27;20035;-62
2023/10/03 11:32:24;;;;;;;2.60;1.13;;;15.40;99.90;;;;;;5133373;27;20031;-62
2023/10/03 11:34:51;;;;;;;3.65;1.20;;;15.20;99.90;;;;;;5115013;27;20110;-63
2023/10/03 11:37:39;;;;;;;4.50;1.30;;;15.00;99.90;;;;;;5114644;27;20058;-62
2023/10/03 11:40:15;;;;;;;6.38;1.73;;;14.90;99.90;;;;;;5114451;27;20490;-63
2023/10/03 11:42:58;;;;;;;4.53;1.90;;;14.80;99.90;;;;;;5098211;27;20053;-62
2023/10/03 11:45:28;;;;;;;3.63;1.27;;;14.80;99.90;;;;;;5114729;27;20039;-62
2023/10/03 11:48:10;;;;;;;4.47;1.33;;;14.80;99.90;;;;;;5115117;27;20071;-62
2023/10/03 11:50:38;;;;;;;4.45;1.30;;;14.80;99.90;;;;;;5115101;27;20166;-62
2023/10/03 11:53:04;;;;;;;4.22;1.30;;;14.80;99.90;;;;;;5133411;27;20047;-62
2023/10/03 11:55:32;;;;;;;5.00;1.67;;;14.80;99.90;;;;;;5133312;27;20038;-61
2023/10/03 11:58:00;;;;;;;6.13;1.30;;;14.80;99.90;;;;;;5115156;27;20473;-62
2023/10/03 12:00:26;;;;;;;4.68;1.52;;;14.70;99.90;;;;;;5115117;27;20055;-62
2023/10/03 12:02:52;;;;;;;3.85;1.20;;;14.70;99.90;;;;;;5133342;27;20129;-62
2023/10/03 12:05:19;;;;;;;4.32;1.92;;;14.70;99.90;;;;;;5114289;27;20050;-62
2023/10/03 12:07:49;;;;;;;4.30;1.60;;;14.70;99.90;;;;;;5114510;27;20065;-62
2023/10/03 12:10:16;;;;;;;5.22;1.73;;;14.70;99.90;;;;;;5114420;27;20485;-63
2023/10/03 12:12:42;;;;;;;3.90;1.50;;;14.70;99.90;;;;;;5133019;27;20073;-62
2023/10/03 12:15:13;;;;;;;6.95;1.80;;;14.70;99.90;;;;;;5114272;27;20075;-62
2023/10/03 12:17:47;;;;;;;4.72;1.77;;;14.70;99.90;;;;;;5095721;27;20050;-62
2023/10/03 12:20:15;;;;;;;4.25;1.52;;;14.70;99.90;;;;;;5132397;27;20034;-62
2023/10/03 12:22:44;;;;;;;6.35;1.83;;;14.70;99.90;;;;;;5132534;27;20537;-62
2023/10/03 12:25:11;;;;;;;7.03;1.58;;;14.70;99.90;;;;;;5131600;27;20095;-62
2023/10/03 12:27:38;;;;;;;6.57;1.80;;;14.80;99.90;;;;;;5113831;27;20045;-62
2023/10/03 12:30:06;;;;;;;6.38;1.70;;;14.80;99.90;;;;;;5113782;27;20053;-62
2023/10/03 12:32:36;;;;;;;6.93;1.90;;;14.90;99.90;;;;;;5114063;27;20035;-62
2023/10/03 12:35:03;;;;;;;4.85;1.80;;;15.00;99.90;;;;;;5131988;27;20035;-63
2023/10/03 12:37:31;;;;;;;8.90;2.42;;;15.10;99.90;;;;;;5096618;27;20046;-62
2023/10/03 12:40:01;;;;;;;5.55;2.00;;;15.10;99.90;;;;;;5114018;27;20447;-62
2023/10/03 12:42:28;;;;;;;6.38;2.00;;;15.30;99.90;;;;;;5113270;27;20047;-61
2023/10/03 12:44:56;;;;;;;7.70;1.83;;;15.50;99.90;;;;;;5132265;27;20096;-63
2023/10/03 12:47:23;;;;;;;5.82;1.77;;;15.50;99.90;;;;;;5131717;27;20537;-62
2023/10/03 12:49:48;;;;;;;6.43;1.70;;;15.60;99.90;;;;;;5112551;27;20035;-61
2023/10/03 12:52:14;;;;;;;8.38;1.85;;;15.60;99.90;;;;;;5112812;27;20062;-62
2023/10/03 12:54:40;;;;;;;7.95;1.92;;;15.60;99.90;;;;;;5113878;27;20090;-61